Observation Tools

Plains cottonwood Photo courtesy of J.S. Peterson, USDA-NRCS PLANTS Database.

Plains cottonwood (Populus deltoides)


Also Known As: Common cottonwood, Plains poplar, Eastern cottonwood
Plant Family: Willow (Salicaceae)
Project BudBurst Plant Group: Deciduous Trees and Shrubs

Identification Hints: Large coarsely-toothed triangular leaves with flattened stems and glands at the tips distinguish Plains cottonwood from most other species of cottonwood. The flowers are produced as catkins, with male catkins being reddish-purple while female catkins are greenish in color.

Did you Know? Although Plains cottonwoods are very fast growing trees, they are not long lived trees. They are susceptible to disease,fire, and drought. The light wood was important as a construction material to Native Americans and European settlers to the Mid-west and Great Plains states. It is the state tree of Kansas, Nebraska, and Wyoming. Note that in older books plains cottonwood and eastern cottonwood were considered separate species.


Live Map for Plains cottonwood

Other years available for viewing:

Below you can view all observations that have been reported in for Plains cottonwood (If the map below is empty then there have not been any observations reported.)

Use the navigation buttons on the left to zoom in/out and pan around. Click on each place marker to get detail information about that observation.

Leaf/Needles/Stalk = Leaf/Needles/Stalk Flower = Flower Pollen = Pollen Fruiting = Fruiting Color = Color

--Back to Top--

close help window button

The table below displays all the data that has been submitted to Project BudBurst. By default, the data is sorted by the date on which the phenophase occurred. Clicking the up and down arrows next to each column name allows you to sort on any value. If there have been more than 10 observations submitted, you can choose how many to display at a time using the "Show __ entries" control. You can also page through the data using the previous and next buttons at the bottom right of the table.

The Search box allows you to search all of the data. Searching by date, species, phenophase, etc. is easy—just start typing and the table will immediately change to contain only observations that contain your search phrase. Do you want to see only 2012 observations? Just type "2012" in the search box. Only want to see maples? Enter "Acer." You can combine searches, too! Searching for "acer 2012" will narrow your results to only the maples that were observed in 2012 (assuming that any observations exist, of course).

Once you have your results in the order desired, you can use any of the buttons above the search box to copy the results to the clipboard; save them as a text, or spreadsheet; or even print them from your browser!

Observational data for Plains cottonwood:

help button
Date Contributor Common Name Species Phenophase Latitude Longitude Obs#
Tue Mar 31 00:00:00 GMT 2009 anonymous Plains cottonwood Populus deltoides First Leaf 37.592900000000000 -121.066000000000000 5669
Thu Apr 23 00:00:00 GMT 2009 mburke Plains cottonwood Populus deltoides First Leaf 40.240600000000000 -104.445000000000000 6571
Mon Apr 27 00:00:00 GMT 2009 burk3877 Plains cottonwood Populus deltoides First Leaf 40.401400000000000 -104.742000000000000 6753
Thu Apr 16 00:00:00 GMT 2009 anonymous Plains cottonwood Populus deltoides First Leaf 45.153700000000000 -93.353000000000000 7328
Mon Apr 27 00:00:00 GMT 2009 anonymous Plains cottonwood Populus deltoides All Leaves Unfolded 45.153700000000000 -93.353000000000000 7329
Wed Feb 17 00:00:00 GMT 2010 anonymous Plains cottonwood Populus deltoides First Leaf 35.139900000000000 -106.551000000000000 9323
Mon Mar 22 00:00:00 GMT 2010 anonymous Plains cottonwood Populus deltoides First Pollen 35.139900000000000 -106.551000000000000 9324
Mon Mar 22 00:00:00 GMT 2010 nnicolai Plains cottonwood Populus deltoides First Pollen 35.083900000000000 -106.619000000000000 9331
Wed Feb 17 00:00:00 GMT 2010 nnicolai Plains cottonwood Populus deltoides First Leaf 35.083900000000000 -106.619000000000000 9332
Fri Apr 02 00:00:00 GMT 2010 sandrah Plains cottonwood Populus deltoides First Pollen 40.066000000000000 -105.016000000000000 9567
Sat Apr 10 00:00:00 GMT 2010 sandrah Plains cottonwood Populus deltoides Full Pollen 40.066000000000000 -105.016000000000000 9568
Tue Apr 13 00:00:00 GMT 2010 sandrah Plains cottonwood Populus deltoides End of Pollen 40.066000000000000 -105.016000000000000 9569
Sat Apr 03 00:00:00 GMT 2010 anonymous Plains cottonwood Populus deltoides First Leaf 39.179400000000000 -86.510900000000000 9626
Tue Apr 06 00:00:00 GMT 2010 anonymous Plains cottonwood Populus deltoides All Leaves Unfolded 39.179400000000000 -86.510900000000000 9627
Mon Apr 12 00:00:00 GMT 2010 anonymous Plains cottonwood Populus deltoides First Pollen 39.179400000000000 -86.510900000000000 9628
Sat Apr 03 00:00:00 GMT 2010 anonymous Plains cottonwood Populus deltoides First Leaf 39.179400000000000 -86.510900000000000 9689
Fri Apr 09 00:00:00 GMT 2010 anonymous Plains cottonwood Populus deltoides All Leaves Unfolded 39.179400000000000 -86.510900000000000 9690
Sat Apr 10 00:00:00 GMT 2010 anonymous Plains cottonwood Populus deltoides First Pollen 39.179400000000000 -86.510900000000000 9691
Sat Apr 03 00:00:00 GMT 2010 anonymous Plains cottonwood Populus deltoides First Leaf 39.179400000000000 -86.510900000000000 9692
Fri Apr 09 00:00:00 GMT 2010 anonymous Plains cottonwood Populus deltoides All Leaves Unfolded 39.179400000000000 -86.510900000000000 9693
Sat Apr 03 00:00:00 GMT 2010 anonymous Plains cottonwood Populus deltoides First Leaf 39.179400000000000 -86.510900000000000 9686
Fri Apr 09 00:00:00 GMT 2010 anonymous Plains cottonwood Populus deltoides All Leaves Unfolded 39.179400000000000 -86.510900000000000 9687
Sat Apr 10 00:00:00 GMT 2010 anonymous Plains cottonwood Populus deltoides First Pollen 39.179400000000000 -86.510900000000000 9688
Thu Apr 01 00:00:00 GMT 2010 anonymous Plains cottonwood Populus deltoides First Leaf 39.179400000000000 -86.510900000000000 9718
Sun Apr 04 00:00:00 GMT 2010 anonymous Plains cottonwood Populus deltoides All Leaves Unfolded 39.179400000000000 -86.510900000000000 9719
Sat Apr 10 00:00:00 GMT 2010 anonymous Plains cottonwood Populus deltoides First Pollen 39.179400000000000 -86.510900000000000 9720
Thu Apr 01 00:00:00 GMT 2010 anonymous Plains cottonwood Populus deltoides First Leaf 39.179400000000000 -86.510900000000000 9733
Fri Apr 09 00:00:00 GMT 2010 anonymous Plains cottonwood Populus deltoides All Leaves Unfolded 39.179400000000000 -86.510900000000000 9734
Sat Apr 17 00:00:00 GMT 2010 anonymous Plains cottonwood Populus deltoides First Pollen 39.179400000000000 -86.510900000000000 9735
Wed Apr 21 00:00:00 GMT 2010 sandrah Plains cottonwood Populus deltoides First Leaf 40.066000000000000 -105.016000000000000 10116
Sun Mar 20 00:00:00 GMT 2011 sandrah Plains cottonwood Populus deltoides First Flower 40.066000000000000 -105.016000000000000 11790
Sun Mar 27 00:00:00 GMT 2011 sandrah Plains cottonwood Populus deltoides Full Flower 40.066000000000000 -105.016000000000000 11791
Thu Apr 07 00:00:00 GMT 2011 palaback Plains cottonwood Populus deltoides Full Flower 40.307500000000000 -105.084000000000000 12161
Thu Apr 21 00:00:00 GMT 2011 palaback Plains cottonwood Populus deltoides First Flower 40.420800000000000 -105.160000000000000 12180
Tue Apr 19 00:00:00 GMT 2011 palaback Plains cottonwood Populus deltoides First Flower 40.307500000000000 -105.084000000000000 12840
Sat Jun 04 00:00:00 GMT 2011 palaback Plains cottonwood Populus deltoides First Ripe Fruit 40.307500000000000 -105.084000000000000 12841
Wed Jun 15 00:00:00 GMT 2011 palaback Plains cottonwood Populus deltoides First Ripe Fruit 40.420800000000000 -105.160000000000000 12936
Tue May 03 00:00:00 GMT 2011 palaback Plains cottonwood Populus deltoides First Leaf 40.307500000000000 -105.084000000000000 12970
Fri Jun 10 00:00:00 GMT 2011 palaback Plains cottonwood Populus deltoides Full Fruiting 40.307500000000000 -105.084000000000000 12971
Tue Jun 28 00:00:00 GMT 2011 palaback Plains cottonwood Populus deltoides Full Fruiting 40.420800000000000 -105.160000000000000 13022
Sat Sep 17 00:00:00 GMT 2011 sandrah Plains cottonwood Populus deltoides Leaves Changing Color (Early) 39.983000000000000 -105.275000000000000 13279
Sun Sep 18 00:00:00 GMT 2011 palaback Plains cottonwood Populus deltoides Leaves Changing Color (Early) 40.420800000000000 -105.160000000000000 13287
Mon Sep 26 00:00:00 GMT 2011 palaback Plains cottonwood Populus deltoides Leaves Changing Color (Early) 40.377200000000000 -105.522000000000000 13444
Mon Sep 26 00:00:00 GMT 2011 palaback Plains cottonwood Populus deltoides Leaves Changing Color (Early) 40.307500000000000 -105.084000000000000 13447
Wed Sep 28 00:00:00 GMT 2011 palaback Plains cottonwood Populus deltoides 50% Color 40.307500000000000 -105.084000000000000 13481
Fri Dec 04 00:00:00 GMT 2015 cralston Plains cottonwood Populus deltoides Leaves Changing Color (Middle) 47.938200000000000 -97.067500000000000 13495
Mon Oct 03 00:00:00 GMT 2011 cralston Plains cottonwood Populus deltoides 50% Color 47.924100000000000 -97.061000000000000 13492
Sat Oct 01 00:00:00 GMT 2011 cralston Plains cottonwood Populus deltoides Leaves Changing Color (Middle) 47.938200000000000 -97.037000000000000 13494
Mon Oct 03 00:00:00 GMT 2011 cralston Plains cottonwood Populus deltoides Leaves Changing Color (Early) 47.957800000000000 -97.383100000000000 13508
Mon Oct 03 00:00:00 GMT 2011 palaback Plains cottonwood Populus deltoides 50% Color 40.420800000000000 -105.160000000000000 13534
Wed Sep 21 00:00:00 GMT 2011 kjminniti Plains cottonwood Populus deltoides Leaves Changing Color (Early) 47.719400000000000 -117.393000000000000 13553
Mon Oct 10 00:00:00 GMT 2011 cralston Plains cottonwood Populus deltoides Leaves Changing Color (Late) 46.906400000000000 -96.834900000000000 13580
Fri Dec 04 00:00:00 GMT 2015 cralston Plains cottonwood Populus deltoides Leaves Changing Color (Late) 47.046800000000000 -97.071500000000000 13579
Mon Oct 17 00:00:00 GMT 2011 snewman14 Plains cottonwood Populus deltoides Leaves Changing Color (Late) 40.122100000000000 -105.149000000000000 13673
Tue Oct 18 00:00:00 GMT 2011 sandrah Plains cottonwood Populus deltoides Leaves Changing Color (Middle) 35.341900000000000 -106.545000000000000 13693
Thu Oct 27 00:00:00 GMT 2011 palaback Plains cottonwood Populus deltoides 50% Leaf Fall 40.307500000000000 -105.084000000000000 13734
Sat Oct 22 00:00:00 GMT 2011 palaback Plains cottonwood Populus deltoides Leaves Changing Color (Late) 40.396000000000000 -105.102000000000000 13764
Wed Oct 19 00:00:00 GMT 2011 palaback Plains cottonwood Populus deltoides Leaves Dropping (Early) 40.412400000000000 -105.153000000000000 13752
Fri Dec 04 00:00:00 GMT 2015 palaback Plains cottonwood Populus deltoides Leaves Changing Color (Middle) 40.977700000000000 -105.096000000000000 13761
Sat Oct 22 00:00:00 GMT 2011 palaback Plains cottonwood Populus deltoides Leaves Changing Color (Late) 40.367900000000000 -105.289000000000000 13769
Fri Oct 21 00:00:00 GMT 2011 palaback Plains cottonwood Populus deltoides Leaves Changing Color (Middle) 40.350600000000000 -105.223000000000000 13782
Wed Nov 02 00:00:00 GMT 2011 palaback Plains cottonwood Populus deltoides Leaves Dropping (Middle) 40.162600000000000 -105.126000000000000 13792
Fri Nov 04 00:00:00 GMT 2011 kjminniti Plains cottonwood Populus deltoides 50% Leaf Fall 47.719400000000000 -117.393000000000000 13805
Fri Dec 04 00:00:00 GMT 2015 palaback Plains cottonwood Populus deltoides Leaves Dropping (Middle) 40.314600000000000 -105.224000000000000 13868
Mon Jun 06 00:00:00 GMT 2011 palaback Plains cottonwood Populus deltoides All Leaves Unfolded 40.420800000000000 -105.160000000000000 14005
Thu Apr 21 00:00:00 GMT 2011 palaback Plains cottonwood Populus deltoides First Flower 40.420800000000000 -105.160000000000000 14006
Wed Jun 15 00:00:00 GMT 2011 palaback Plains cottonwood Populus deltoides First Ripe Fruit 40.420800000000000 -105.160000000000000 14007
Mon Oct 03 00:00:00 GMT 2011 palaback Plains cottonwood Populus deltoides 50% Color 40.420800000000000 -105.160000000000000 14008
Tue Nov 01 00:00:00 GMT 2011 palaback Plains cottonwood Populus deltoides 50% Leaf Fall 40.420800000000000 -105.160000000000000 14009
Mon Apr 02 00:00:00 GMT 2012 palaback Plains cottonwood Populus deltoides First Flower 40.307500000000000 -105.084000000000000 14673
Sat Apr 07 00:00:00 GMT 2012 palaback Plains cottonwood Populus deltoides Full Flower 40.307500000000000 -105.084000000000000 14931
Wed Apr 11 00:00:00 GMT 2012 palaback Plains cottonwood Populus deltoides First Flower 40.420800000000000 -105.160000000000000 14971
Fri Apr 13 00:00:00 GMT 2012 palaback Plains cottonwood Populus deltoides Full Flower 40.420800000000000 -105.160000000000000 14972
Tue Apr 24 00:00:00 GMT 2012 grandstaff Plains cottonwood Populus deltoides First Leaf 46.192700000000000 -114.167000000000000 15229
Wed Mar 21 00:00:00 GMT 2012 chrbar Plains cottonwood Populus deltoides First Flower 42.026200000000000 -87.751900000000000 15309
Wed Mar 21 00:00:00 GMT 2012 chrbar Plains cottonwood Populus deltoides Full Flower 42.026200000000000 -87.751900000000000 15293
Thu Apr 26 00:00:00 GMT 2012 grandstaff Plains cottonwood Populus deltoides All Leaves Unfolded 46.192700000000000 -114.167000000000000 15300
Tue Apr 24 00:00:00 GMT 2012 palaback Plains cottonwood Populus deltoides First Ripe Fruit 40.307500000000000 -105.084000000000000 15371
Fri Apr 13 00:00:00 GMT 2012 tkmayer Plains cottonwood Populus deltoides Leaves Unfolding (Early) 42.050900000000000 -87.678200000000000 15453
Sat May 05 00:00:00 GMT 2012 snewman14 Plains cottonwood Populus deltoides Leaves Unfolding (Middle) 41.100100000000000 -104.820000000000000 15515
Sun May 06 00:00:00 GMT 2012 snewman14 Plains cottonwood Populus deltoides Leaves Unfolding (Late) 43.783400000000000 -102.369000000000000 15522
Fri May 11 00:00:00 GMT 2012 tkmayer Plains cottonwood Populus deltoides Leaves Unfolding (Late) 42.055200000000000 -87.684700000000000 15577
Tue May 15 00:00:00 GMT 2012 snewman14 Plains cottonwood Populus deltoides Fruit (Early) 40.815600000000000 -99.914300000000000 15664
Tue May 15 00:00:00 GMT 2012 snewman14 Plains cottonwood Populus deltoides Leaves Unfolding (Late) 41.534500000000000 -96.032500000000000 15663
Fri Sep 14 00:00:00 GMT 2012 palaback Plains cottonwood Populus deltoides Leaves Changing Color (Early) 40.410900000000000 -105.636000000000000 16602
Thu Sep 20 00:00:00 GMT 2012 snewman14 Plains cottonwood Populus deltoides Leaves Changing Color (Early) 40.016600000000000 -105.243000000000000 16733
Tue Oct 02 00:00:00 GMT 2012 clswen Plains cottonwood Populus deltoides Leaves Dropping (Middle) 40.010700000000000 -105.283000000000000 16764
Tue Oct 02 00:00:00 GMT 2012 palaback Plains cottonwood Populus deltoides Leaves Changing Color (Middle) 40.412400000000000 -105.153000000000000 16778
Wed Oct 10 00:00:00 GMT 2012 pamrgncsp Plains cottonwood Populus deltoides 50% Color 35.129700000000000 -106.683000000000000 16931
Fri Apr 13 00:00:00 GMT 2012 palaback Plains cottonwood Populus deltoides First Leaf 40.307500000000000 -105.084000000000000 17235
Sat Oct 20 00:00:00 GMT 2012 palaback Plains cottonwood Populus deltoides 50% Color 40.307500000000000 -105.084000000000000 17236
Sat Oct 27 00:00:00 GMT 2012 palaback Plains cottonwood Populus deltoides 50% Leaf Fall 40.307500000000000 -105.084000000000000 17237
Sat Nov 10 00:00:00 GMT 2012 pamrgncsp Plains cottonwood Populus deltoides 50% Leaf Fall 35.129700000000000 -106.683000000000000 17554
Sun Mar 24 00:00:00 GMT 2013 MrHollins Plains cottonwood Populus deltoides Bud Burst 40.100000000000000 -105.174000000000000 18536
Tue Jan 01 00:00:00 GMT 2013 kmbosler Plains cottonwood Populus deltoides First Leaf 39.165300000000000 -86.526400000000000 18582
Wed Apr 10 00:00:00 GMT 2013 palaback Plains cottonwood Populus deltoides Flowers (Early) 38.876000000000000 -77.049100000000000 18780
Sat Mar 16 00:00:00 GMT 2013 dierks.taylor18 Plains cottonwood Populus deltoides Bud Burst 40.103500000000000 -105.144000000000000 19201
Thu Apr 25 00:00:00 GMT 2013 dierks.taylor18 Plains cottonwood Populus deltoides First Leaf 40.103500000000000 -105.144000000000000 19202
Tue Apr 30 00:00:00 GMT 2013 heuric.keller17 Plains cottonwood Populus deltoides Bud Burst 40.104400000000000 -105.165000000000000 19942
Sat Apr 20 00:00:00 GMT 2013 pamrgncsp Plains cottonwood Populus deltoides First Leaf 35.129700000000000 -106.683000000000000 21061
Wed May 01 00:00:00 GMT 2013 pamrgncsp Plains cottonwood Populus deltoides All Leaves Unfolded 35.129700000000000 -106.683000000000000 21062
Wed Apr 10 00:00:00 GMT 2013 pamrgncsp Plains cottonwood Populus deltoides First Flower 35.129700000000000 -106.683000000000000 21063
Wed Apr 17 00:00:00 GMT 2013 pamrgncsp Plains cottonwood Populus deltoides Full Flower 35.129700000000000 -106.683000000000000 21064
Wed May 15 00:00:00 GMT 2013 pamrgncsp Plains cottonwood Populus deltoides First Ripe Fruit 35.129700000000000 -106.683000000000000 21065
Wed Jun 05 00:00:00 GMT 2013 pamrgncsp Plains cottonwood Populus deltoides Full Fruiting 35.129700000000000 -106.683000000000000 21066
Fri Oct 11 00:00:00 GMT 2013 antelope Plains cottonwood Populus deltoides 50% Color 39.617800000000000 -104.725000000000000 22664
Wed Mar 20 00:00:00 GMT 2013 pamrgncsp Plains cottonwood Populus deltoides Bud Burst 35.129700000000000 -106.683000000000000 24283
Wed Oct 23 00:00:00 GMT 2013 pamrgncsp Plains cottonwood Populus deltoides 50% Color 35.129700000000000 -106.683000000000000 24284
Wed Nov 06 00:00:00 GMT 2013 pamrgncsp Plains cottonwood Populus deltoides 50% Leaf Fall 35.129700000000000 -106.683000000000000 24285
Wed Oct 21 00:00:00 GMT 2015 Paul_Weihe Plains cottonwood Populus deltoides Leaves Unfolding (Late) 41.402543000000000 -92.931840000000000 61497
Wed Oct 21 00:00:00 GMT 2015 Paul_Weihe Plains cottonwood Populus deltoides Leaves Changing Color (Middle) 41.402543000000000 -92.931840000000000 61498
Wed Oct 21 00:00:00 GMT 2015 Paul_Weihe Plains cottonwood Populus deltoides Leaves Dropping (None) 41.402543000000000 -92.931840000000000 61499
Wed Oct 21 00:00:00 GMT 2015 Paul_Weihe Plains cottonwood Populus deltoides Flowers (None) 41.402543000000000 -92.931840000000000 61500
Wed Oct 21 00:00:00 GMT 2015 Paul_Weihe Plains cottonwood Populus deltoides Fruit (None) 41.402543000000000 -92.931840000000000 61501
Wed Apr 22 00:00:00 GMT 2015 palaback Plains cottonwood Populus deltoides First Leaf 40.307500000000000 -105.084000000000000 61522
Thu Oct 15 00:00:00 GMT 2015 palaback Plains cottonwood Populus deltoides 50% Color 40.307500000000000 -105.084000000000000 61523
Wed Mar 16 00:00:00 GMT 2016 rubert Plains cottonwood Populus deltoides Bud Burst 43.077200000000000 -89.422500000000000 63515
Wed Apr 27 00:00:00 GMT 2016 rubert Plains cottonwood Populus deltoides All Leaves Unfolded 43.077200000000000 -89.422500000000000 65955
Wed Apr 20 00:00:00 GMT 2016 palaback Plains cottonwood Populus deltoides First Flower 40.307500000000000 -105.084000000000000 65984
Mon Apr 25 00:00:00 GMT 2016 palaback Plains cottonwood Populus deltoides Full Flower 40.307500000000000 -105.084000000000000 65985
Thu May 26 00:00:00 GMT 2016 allib001 Plains cottonwood Populus deltoides Full Fruiting 45.053700000000000 -92.812700000000000 68152
Sat Sep 24 00:00:00 GMT 2016 allib001 Plains cottonwood Populus deltoides 50% Color 45.053700000000000 -92.812700000000000 70571
Wed Oct 05 00:00:00 GMT 2016 elen2 Plains cottonwood Populus deltoides Bud Burst 39.160000000000000 -94.650000000000000 70576
Wed Oct 05 00:00:00 GMT 2016 elen2 Plains cottonwood Populus deltoides 50% Color 39.160000000000000 -94.650000000000000 70577
Wed Oct 12 00:00:00 GMT 2016 rubert Plains cottonwood Populus deltoides 50% Color 43.077200000000000 -89.422500000000000 70780
Mon Aug 29 00:00:00 GMT 2016 brilutgring Plains cottonwood Populus deltoides Bud Burst 40.000000000000000 -100.000000000000000 73435
Mon Nov 07 00:00:00 GMT 2016 brilutgring Plains cottonwood Populus deltoides 50% Color 40.000000000000000 -100.000000000000000 73436
Mon Nov 07 00:00:00 GMT 2016 brilutgring Plains cottonwood Populus deltoides 50% Leaf Fall 40.000000000000000 -100.000000000000000 73437
Wed Oct 05 00:00:00 GMT 2016 allib001 Plains cottonwood Populus deltoides 50% Leaf Fall 45.053700000000000 -92.812700000000000 74080
Fri Apr 07 00:00:00 GMT 2017 elen2 Plains cottonwood Populus deltoides Full Flower 38.988535000000000 -94.813857000000000 76948
Fri Apr 07 00:00:00 GMT 2017 Scutacarus1964 Plains cottonwood Populus deltoides Bud Burst 39.398760000000000 -101.029760000000000 77025
Sun Apr 09 00:00:00 GMT 2017 Scutacarus1964 Plains cottonwood Populus deltoides First Flower 39.398760000000000 -101.029760000000000 77026
Sun Apr 09 00:00:00 GMT 2017 Scutacarus1964 Plains cottonwood Populus deltoides Full Flower 39.398760000000000 -101.029760000000000 77027
Fri Apr 07 00:00:00 GMT 2017 cbemerick Plains cottonwood Populus deltoides Bud Burst 39.170490000000000 -86.513220000000000 77039
Wed Apr 12 00:00:00 GMT 2017 elen2 Plains cottonwood Populus deltoides Bud Burst 38.988535000000000 -94.813857000000000 77971
Wed Apr 12 00:00:00 GMT 2017 elen2 Plains cottonwood Populus deltoides First Leaf 38.988535000000000 -94.813857000000000 77972
Thu Mar 30 00:00:00 GMT 2017 ppeasley Plains cottonwood Populus deltoides Bud Burst 46.609120000000000 -112.078185000000000 81717
Tue Apr 18 00:00:00 GMT 2017 ppeasley Plains cottonwood Populus deltoides First Leaf 46.609120000000000 -112.078185000000000 81718
Fri Apr 28 00:00:00 GMT 2017 ppeasley Plains cottonwood Populus deltoides All Leaves Unfolded 46.609120000000000 -112.078185000000000 81719

*All downloadable materials require the free Adobe Reader.